createdAt,value
2018-02-08T00:00:48.638Z,145.30
2018-02-08T00:03:16.888Z,133.60
2018-02-08T00:05:45.339Z,144.97
2018-02-08T00:08:14.355Z,114.07
2018-02-08T00:10:42.627Z,149.87
2018-02-08T00:13:10.962Z,152.63
2018-02-08T00:15:39.189Z,132.93
2018-02-08T00:18:07.426Z,147.40
2018-02-08T00:20:36.501Z,138.83
2018-02-08T00:23:04.806Z,151.20
2018-02-08T00:25:33.146Z,128.13
2018-02-08T00:28:01.452Z,150.40
2018-02-08T00:30:29.767Z,158.90
2018-02-08T00:32:58.097Z,140.80
2018-02-08T00:35:26.320Z,145.03
2018-02-08T00:37:54.574Z,131.37
2018-02-08T00:40:23.019Z,143.73
2018-02-08T00:42:51.305Z,94.07
2018-02-08T00:45:19.545Z,154.83
2018-02-08T00:47:47.882Z,140.43
2018-02-08T00:50:16.100Z,144.03
2018-02-08T00:52:44.439Z,107.03
2018-02-08T00:55:12.888Z,116.27
2018-02-08T00:57:41.892Z,116.43
2018-02-08T01:00:10.881Z,117.30
2018-02-08T01:02:39.933Z,117.87
2018-02-08T01:05:08.171Z,125.90
2018-02-08T01:07:36.558Z,118.87
2018-02-08T01:10:04.843Z,106.00
2018-02-08T01:12:33.097Z,103.13
2018-02-08T01:15:01.431Z,135.37
2018-02-08T01:17:29.657Z,134.77
2018-02-08T01:19:57.948Z,98.70
2018-02-08T01:22:26.310Z,106.67
2018-02-08T01:24:54.617Z,124.13
2018-02-08T01:27:22.971Z,147.93
2018-02-08T01:29:51.214Z,107.17
2018-02-08T01:32:20.344Z,143.50
2018-02-08T01:34:48.633Z,116.73
2018-02-08T01:37:16.892Z,168.93
2018-02-08T01:39:45.238Z,123.53
2018-02-08T01:42:14.250Z,162.97
2018-02-08T01:44:42.541Z,109.27
2018-02-08T01:47:10.960Z,104.60
2018-02-08T01:49:46.155Z,161.40
2018-02-08T01:52:14.520Z,112.73
2018-02-08T01:54:42.885Z,116.77
2018-02-08T01:57:11.905Z,136.07
2018-02-08T01:59:40.236Z,100.70
2018-02-08T02:02:09.272Z,131.63
2018-02-08T02:04:37.627Z,161.57
2018-02-08T02:07:06.686Z,137.03
2018-02-08T02:09:34.971Z,171.67
2018-02-08T02:12:03.358Z,113.47
2018-02-08T02:14:31.609Z,133.23
2018-02-08T02:16:59.879Z,130.93
2018-02-08T02:19:28.322Z,122.00
2018-02-08T02:21:56.610Z,116.47
2018-02-08T02:24:24.885Z,122.43
2018-02-08T02:26:53.387Z,121.73
2018-02-08T02:29:21.641Z,158.07
2018-02-08T02:31:49.912Z,160.00
2018-02-08T02:34:18.249Z,169.13
2018-02-08T02:36:47.299Z,165.63
2018-02-08T02:39:15.614Z,179.47
2018-02-08T02:41:44.085Z,170.90
2018-02-08T02:44:13.143Z,167.63
2018-02-08T02:46:41.478Z,167.40
2018-02-08T02:49:09.747Z,152.90
2018-02-08T02:51:38.801Z,185.93
2018-02-08T02:54:07.114Z,135.47
2018-02-08T02:56:35.472Z,188.27
2018-02-08T02:59:03.778Z,185.43
2018-02-08T03:01:32.815Z,182.87
2018-02-08T03:04:01.248Z,171.33
2018-02-08T03:06:29.519Z,162.40
2018-02-08T03:08:57.773Z,160.40
2018-02-08T03:11:26.141Z,150.13
2018-02-08T03:13:54.417Z,180.20
2018-02-08T03:16:22.736Z,139.93
2018-02-08T03:18:51.816Z,179.03
2018-02-08T03:21:20.272Z,151.63
2018-02-08T03:23:48.549Z,175.03
2018-02-08T03:26:16.802Z,195.27
2018-02-08T03:28:45.157Z,182.77
2018-02-08T03:31:14.177Z,193.50
2018-02-08T03:33:42.468Z,205.50
2018-02-08T03:36:10.869Z,181.33
2018-02-08T03:38:39.114Z,184.27
2018-02-08T03:41:07.391Z,191.67
2018-02-08T03:43:35.779Z,169.03
2018-02-08T03:46:04.064Z,151.90
2018-02-08T03:48:32.357Z,181.00
2018-02-08T03:51:00.793Z,179.03
2018-02-08T03:53:29.058Z,174.47
2018-02-08T03:55:58.119Z,159.43
2018-02-08T03:58:27.243Z,148.90
2018-02-08T04:00:55.517Z,163.20
2018-02-08T04:03:23.808Z,168.50
2018-02-08T04:05:52.163Z,127.63
2018-02-08T04:08:20.382Z,147.67
2018-02-08T04:10:48.857Z,162.00
2018-02-08T04:13:17.131Z,179.70
2018-02-08T04:15:45.407Z,160.70
2018-02-08T04:18:13.713Z,170.37
2018-02-08T04:20:41.956Z,166.40
2018-02-08T04:23:10.400Z,145.90
2018-02-08T04:25:38.661Z,163.33
2018-02-08T04:28:07.671Z,158.80
2018-02-08T04:30:36.045Z,121.73
2018-02-08T04:33:04.290Z,144.93
2018-02-08T04:35:32.516Z,140.10
2018-02-08T04:38:00.885Z,125.10
2018-02-08T04:40:46.923Z,149.87
2018-02-08T04:43:33.038Z,176.43
2018-02-08T04:46:19.893Z,168.07
2018-02-08T04:48:48.417Z,139.77
2018-02-08T04:51:16.712Z,119.90
2018-02-08T04:53:44.958Z,161.40
2018-02-08T04:56:13.298Z,136.60
2018-02-08T04:58:41.554Z,142.90
2018-02-08T05:01:09.920Z,159.20
2018-02-08T05:03:38.227Z,152.73
2018-02-08T05:06:06.642Z,171.57
2018-02-08T05:08:34.983Z,171.27
2018-02-08T05:11:04.116Z,154.83
2018-02-08T05:13:32.435Z,158.37
2018-02-08T05:16:01.476Z,178.70
2018-02-08T05:18:29.935Z,179.73
2018-02-08T05:20:58.232Z,146.00
2018-02-08T05:23:26.472Z,170.77
2018-02-08T05:25:54.844Z,154.93
2018-02-08T05:28:23.142Z,187.40
2018-02-08T05:30:51.399Z,174.60
2018-02-08T05:33:19.794Z,170.50
2018-02-08T05:35:48.036Z,189.80
2018-02-08T05:38:17.057Z,184.10
2018-02-08T05:40:45.445Z,173.07
2018-02-08T05:43:13.739Z,154.80
2018-02-08T05:45:41.988Z,172.30
2018-02-08T05:48:10.380Z,175.80
2018-02-08T05:50:38.624Z,161.60
2018-02-08T05:53:06.861Z,169.30
2018-02-08T05:55:35.246Z,152.90
2018-02-08T05:58:03.536Z,166.60
2018-02-08T06:00:31.824Z,154.43
2018-02-08T06:03:00.195Z,138.40
2018-02-08T06:05:28.432Z,144.77
2018-02-08T06:07:56.710Z,152.73
2018-02-08T06:10:25.027Z,139.47
2018-02-08T06:12:54.337Z,158.90
2018-02-08T06:15:22.643Z,144.93
2018-02-08T06:17:51.061Z,176.07
2018-02-08T06:20:19.329Z,166.77
2018-02-08T06:22:47.577Z,160.40
2018-02-08T06:25:15.972Z,146.67
2018-02-08T06:27:44.212Z,139.00
2018-02-08T06:30:12.454Z,141.20
2018-02-08T06:32:41.600Z,91.53
2018-02-08T06:35:09.855Z,103.53
2018-02-08T06:37:38.111Z,133.03
2018-02-08T06:40:06.376Z,141.67
2018-02-08T06:42:34.683Z,141.03
2018-02-08T06:45:02.996Z,146.07
2018-02-08T06:47:31.267Z,142.90
2018-02-08T06:49:59.673Z,152.87
2018-02-08T06:52:28.832Z,136.13
2018-02-08T06:54:57.117Z,156.10
2018-02-08T06:57:25.408Z,148.70
2018-02-08T06:59:53.641Z,143.27
2018-02-08T07:02:21.946Z,126.13
2018-02-08T07:04:50.201Z,154.03
2018-02-08T07:07:18.552Z,142.03
2018-02-08T07:09:46.853Z,132.77
2018-02-08T07:12:15.280Z,106.13
2018-02-08T07:14:43.532Z,104.50
2018-02-08T07:17:11.885Z,88.80
2018-02-08T07:19:40.187Z,128.80
2018-02-08T07:22:08.437Z,121.87
2018-02-08T07:24:36.721Z,114.37
2018-02-08T07:27:05.085Z,133.40
2018-02-08T07:29:33.389Z,131.97
2018-02-08T07:32:01.664Z,107.80
2018-02-08T07:34:30.082Z,129.20
2018-02-08T07:36:59.153Z,134.90
2018-02-08T07:39:27.524Z,117.33
2018-02-08T07:41:55.881Z,132.37
2018-02-08T07:44:24.185Z,134.43
2018-02-08T07:46:52.444Z,122.83
2018-02-08T07:49:20.765Z,132.97
2018-02-08T07:51:49.838Z,92.00
2018-02-08T07:54:19.305Z,82.50
2018-02-08T07:56:47.618Z,137.33
2018-02-08T07:59:15.909Z,121.43
2018-02-08T08:01:44.958Z,115.40
2018-02-08T08:04:13.338Z,117.00
2018-02-08T08:06:41.639Z,93.43
2018-02-08T08:09:09.888Z,109.83
2018-02-08T08:11:38.203Z,92.37
2018-02-08T08:14:06.520Z,85.20
2018-02-08T08:16:34.783Z,117.43
2018-02-08T08:19:03.126Z,83.87
2018-02-08T08:21:31.396Z,75.93
2018-02-08T08:23:59.657Z,94.10
2018-02-08T08:26:27.991Z,103.90
2018-02-08T08:28:56.253Z,87.27
2018-02-08T08:31:25.361Z,83.20
2018-02-08T08:33:53.659Z,96.30
2018-02-08T08:36:21.930Z,97.93
2018-02-08T08:38:51.049Z,85.17
2018-02-08T08:41:19.516Z,85.00
2018-02-08T08:43:47.783Z,78.13
2018-02-08T08:46:16.791Z,92.23
2018-02-08T08:48:48.518Z,100.37
2018-02-08T08:51:16.881Z,79.87
2018-02-08T08:53:45.130Z,90.50
2018-02-08T08:56:13.390Z,95.00
2018-02-08T08:58:41.655Z,95.30
2018-02-08T09:01:09.927Z,83.23
2018-02-08T09:03:38.282Z,87.93
2018-02-08T09:06:06.597Z,113.13
2018-02-08T09:08:35.679Z,131.70
2018-02-08T09:11:04.001Z,106.93
2018-02-08T09:13:33.071Z,111.40
2018-02-08T09:16:01.298Z,84.00
2018-02-08T09:18:30.396Z,112.53
2018-02-08T09:20:58.720Z,110.93
2018-02-08T09:23:27.770Z,135.40
2018-02-08T09:25:56.120Z,115.00
2018-02-08T09:28:25.182Z,148.77
2018-02-08T09:30:53.432Z,114.43
2018-02-08T09:33:21.734Z,131.20
2018-02-08T09:35:50.038Z,113.37
2018-02-08T09:38:19.089Z,100.43
2018-02-08T09:40:47.469Z,103.13
2018-02-08T09:43:15.762Z,124.43
2018-02-08T09:45:44.002Z,117.77
2018-02-08T09:48:12.289Z,136.40
2018-02-08T09:50:40.544Z,115.93
2018-02-08T09:53:08.814Z,108.00
2018-02-08T09:55:37.143Z,99.30
2018-02-08T09:58:05.451Z,91.20
2018-02-08T10:00:33.697Z,99.10
2018-02-08T10:03:02.761Z,102.33
2018-02-08T10:05:31.021Z,111.03
2018-02-08T10:07:59.258Z,107.00
2018-02-08T10:10:28.299Z,101.80
2018-02-08T10:12:56.627Z,117.90
2018-02-08T10:15:24.907Z,107.90
2018-02-08T10:17:53.969Z,104.03
2018-02-08T10:20:22.271Z,99.20
2018-02-08T10:22:51.348Z,84.77
2018-02-08T10:25:19.966Z,91.37
2018-02-08T10:27:48.436Z,90.87
2018-02-08T10:30:16.709Z,105.93
2018-02-08T10:32:45.770Z,116.63
2018-02-08T10:35:14.053Z,106.23
2018-02-08T10:37:42.319Z,102.47
2018-02-08T10:40:10.625Z,91.60
2018-02-08T10:42:39.689Z,76.33
2018-02-08T10:45:08.066Z,73.67
2018-02-08T10:47:36.366Z,61.30
2018-02-08T10:50:04.696Z,70.17
2018-02-08T10:52:32.938Z,66.93
2018-02-08T10:55:01.287Z,246.40
2018-02-08T10:57:30.340Z,76.30
2018-02-08T10:59:58.604Z,74.07
2018-02-08T11:02:27.271Z,64.53
2018-02-08T11:04:55.547Z,104.30
2018-02-08T11:07:23.846Z,62.73
2018-02-08T11:09:52.192Z,65.27
2018-02-08T11:12:20.421Z,59.53
2018-02-08T11:14:48.669Z,61.30
2018-02-08T11:17:16.981Z,62.70
2018-02-08T11:19:45.408Z,60.07
2018-02-08T11:22:13.733Z,61.37
2018-02-08T11:24:42.031Z,56.07
2018-02-08T11:27:10.387Z,55.70
2018-02-08T11:29:39.510Z,58.83
2018-02-08T11:32:08.585Z,58.43
2018-02-08T11:34:37.660Z,54.93
2018-02-08T11:37:05.968Z,58.03
2018-02-08T11:39:34.329Z,60.00
2018-02-08T11:42:02.616Z,54.10
2018-02-08T11:44:31.710Z,53.80
2018-02-08T11:47:00.301Z,50.37
2018-02-08T11:49:29.423Z,57.17
2018-02-08T11:51:57.683Z,55.43
2018-02-08T11:54:26.875Z,52.17
2018-02-08T11:56:55.189Z,53.30
2018-02-08T11:59:23.601Z,55.00
2018-02-08T12:01:51.913Z,46.23
2018-02-08T12:04:20.182Z,66.80
2018-02-08T12:06:48.521Z,60.60
2018-02-08T12:09:16.850Z,59.60
2018-02-08T12:11:45.125Z,57.03
2018-02-08T12:14:13.386Z,56.43
2018-02-08T12:16:41.710Z,58.20
2018-02-08T12:19:09.966Z,60.07
2018-02-08T12:21:38.232Z,60.37
2018-02-08T12:24:06.592Z,57.30
2018-02-08T12:26:34.890Z,64.30
2018-02-08T12:29:03.963Z,72.67
2018-02-08T12:31:32.395Z,43.70
2018-02-08T12:34:00.700Z,46.47
2018-02-08T12:36:29.022Z,41.30
2018-02-08T12:38:58.143Z,44.03
2018-02-08T12:41:26.452Z,51.27
2018-02-08T12:43:54.719Z,45.77
2018-02-08T12:46:23.013Z,46.10
2018-02-08T12:48:51.763Z,43.40
2018-02-08T12:51:20.074Z,49.80
2018-02-08T12:53:48.406Z,42.50
2018-02-08T12:56:16.715Z,47.93
2018-02-08T12:58:45.011Z,47.67
2018-02-08T13:01:13.341Z,49.83
2018-02-08T13:03:41.636Z,45.60
2018-02-08T13:06:10.816Z,45.17
2018-02-08T13:08:39.123Z,45.33
2018-02-08T13:11:07.390Z,45.07
2018-02-08T13:13:35.657Z,44.07
2018-02-08T13:16:03.954Z,48.37
2018-02-08T13:18:32.246Z,48.50
2018-02-08T13:21:00.520Z,48.07
2018-02-08T13:23:28.857Z,37.27
2018-02-08T13:25:57.114Z,52.07
2018-02-08T13:28:25.414Z,48.23
2018-02-08T13:30:53.802Z,51.53
2018-02-08T13:33:22.078Z,50.27
2018-02-08T13:35:50.353Z,47.43
2018-02-08T13:38:18.655Z,51.30
2018-02-08T13:40:46.938Z,60.13
2018-02-08T13:43:15.215Z,50.20
2018-02-08T13:45:44.278Z,49.03
2018-02-08T13:48:13.368Z,56.60
2018-02-08T13:53:49.325Z,51.30
2018-02-08T13:56:23.118Z,48.63
2018-02-08T13:58:56.851Z,48.50
2018-02-08T14:01:30.664Z,57.17
2018-02-08T14:03:58.928Z,47.87
2018-02-08T14:06:27.217Z,48.33
2018-02-08T14:08:55.617Z,49.80
2018-02-08T14:11:23.906Z,51.27
2018-02-08T14:13:52.944Z,59.57
2018-02-08T14:16:21.473Z,55.47
2018-02-08T14:18:49.744Z,54.90
2018-02-08T14:21:18.058Z,48.23
2018-02-08T14:23:46.430Z,57.97
2018-02-08T14:26:14.680Z,50.90
2018-02-08T14:28:43.766Z,56.40
2018-02-08T14:31:12.112Z,53.37
2018-02-08T14:33:41.139Z,71.90
2018-02-08T14:36:09.449Z,63.20
2018-02-08T14:38:37.735Z,50.37
2018-02-08T14:41:06.048Z,55.70
2018-02-08T14:43:34.526Z,47.87
2018-02-08T14:46:03.690Z,62.53
2018-02-08T14:48:31.966Z,50.97
2018-02-08T14:51:00.393Z,49.17
2018-02-08T14:53:28.789Z,62.03
2018-02-08T14:55:57.101Z,57.37
2018-02-08T14:58:27.119Z,60.93
2018-02-08T15:00:55.482Z,59.63
2018-02-08T15:03:23.756Z,54.10
2018-02-08T15:05:52.253Z,54.20
2018-02-08T15:08:20.506Z,41.73
2018-02-08T15:10:48.807Z,57.73
2018-02-08T15:13:17.185Z,57.40
2018-02-08T15:15:46.185Z,59.67
2018-02-08T15:18:14.448Z,46.90
2018-02-08T15:20:42.835Z,46.13
2018-02-08T15:23:11.320Z,57.03
2018-02-08T15:25:39.656Z,45.43
2018-02-08T15:28:08.806Z,53.67
2018-02-08T15:30:37.136Z,50.17
2018-02-08T15:33:05.442Z,68.30
2018-02-08T15:35:33.778Z,63.33
2018-02-08T15:38:03.728Z,71.77
2018-02-08T15:40:32.001Z,57.23
2018-02-08T15:43:01.093Z,55.70
2018-02-08T15:45:29.369Z,54.87
2018-02-08T15:47:58.133Z,50.80
2018-02-08T15:50:27.178Z,41.73
2018-02-08T15:52:55.501Z,42.40
2018-02-08T15:55:23.762Z,41.43
2018-02-08T15:57:52.883Z,40.43
2018-02-08T16:00:21.123Z,36.70
2018-02-08T16:02:49.375Z,38.50
2018-02-08T16:05:17.988Z,35.90
2018-02-08T16:07:46.487Z,38.90
2018-02-08T16:10:14.766Z,41.97
2018-02-08T16:12:43.797Z,37.53
2018-02-08T16:15:12.060Z,41.27
2018-02-08T16:17:40.364Z,41.43
2018-02-08T16:20:08.806Z,44.73
2018-02-08T16:22:37.068Z,39.33
2018-02-08T16:25:05.320Z,40.37
2018-02-08T16:27:33.639Z,43.70
2018-02-08T16:30:01.933Z,43.60
2018-02-08T16:32:30.261Z,41.77
2018-02-08T16:34:59.372Z,38.90
2018-02-08T16:37:28.465Z,45.83
2018-02-08T16:39:57.572Z,45.27
2018-02-08T16:42:25.920Z,44.20
2018-02-08T16:44:54.247Z,50.60
2018-02-08T16:47:23.282Z,41.20
2018-02-08T16:49:51.653Z,43.90
2018-02-08T16:52:20.490Z,45.50
2018-02-08T16:54:48.851Z,45.70
2018-02-08T16:57:17.201Z,41.93
2018-02-08T16:59:46.509Z,53.07
2018-02-08T17:02:14.755Z,46.07
2018-02-08T17:04:43.047Z,50.03
2018-02-08T17:07:11.322Z,47.50
2018-02-08T17:09:39.570Z,55.57
2018-02-08T17:12:07.872Z,58.53
2018-02-08T17:14:36.140Z,52.00
2018-02-08T17:17:04.427Z,51.83
2018-02-08T17:19:32.710Z,51.87
2018-02-08T17:22:01.797Z,52.27
2018-02-08T17:24:30.131Z,60.23
2018-02-08T17:26:58.454Z,52.70
2018-02-08T17:29:26.710Z,58.83
2018-02-08T17:31:54.982Z,54.00
2018-02-08T17:34:23.302Z,59.73
2018-02-08T17:36:52.391Z,61.50
2018-02-08T17:39:20.667Z,53.60
2018-02-08T17:41:48.927Z,55.70
2018-02-08T17:44:17.216Z,57.10
2018-02-08T17:46:46.279Z,58.33
2018-02-08T17:49:14.626Z,63.97
2018-02-08T17:51:42.907Z,73.27
2018-02-08T17:54:11.301Z,69.40
2018-02-08T17:56:40.118Z,96.00
2018-02-08T17:59:09.274Z,78.70
2018-02-08T18:01:37.536Z,78.67
2018-02-08T18:04:05.929Z,69.77
2018-02-08T18:06:34.197Z,78.17
2018-02-08T18:09:02.493Z,79.77
2018-02-08T18:11:30.873Z,86.03
2018-02-08T18:13:59.223Z,87.30
2018-02-08T18:16:27.665Z,87.17
2018-02-08T18:18:56.009Z,87.80
2018-02-08T18:21:24.700Z,99.43
2018-02-08T18:23:53.023Z,106.57
2018-02-08T18:26:22.131Z,150.20
2018-02-08T18:28:50.367Z,94.50
2018-02-08T18:31:18.703Z,574.47
2018-02-08T18:33:47.025Z,244.83
2018-02-08T18:36:15.293Z,189.00
2018-02-08T18:38:43.534Z,412.60
2018-02-08T18:41:11.836Z,175.83
2018-02-08T18:43:40.074Z,565.23
2018-02-08T18:46:08.322Z,383.37
2018-02-08T18:48:44.473Z,406.90
2018-02-08T18:51:16.617Z,464.73
2018-02-08T18:53:46.398Z,457.00
2018-02-08T18:56:23.591Z,533.37
2018-02-08T18:59:02.042Z,595.43
2018-02-08T19:01:33.973Z,478.73
2018-02-08T19:04:04.253Z,329.60
2018-02-08T19:06:36.321Z,479.67
2018-02-08T19:09:05.328Z,324.23
2018-02-08T19:11:33.577Z,482.80
2018-02-08T19:14:02.667Z,739.20
2018-02-08T19:16:32.389Z,428.70
2018-02-08T19:19:01.405Z,210.93
2018-02-08T19:21:30.035Z,204.87
2018-02-08T19:23:58.266Z,1082.80
2018-02-08T19:26:26.567Z,1999.90
2018-02-08T19:28:54.887Z,1999.37
2018-02-08T19:31:23.956Z,486.77
2018-02-08T19:33:52.309Z,558.67
2018-02-08T19:36:20.548Z,406.23
2018-02-08T19:38:49.568Z,602.27
2018-02-08T19:41:17.812Z,321.67
2018-02-08T19:43:46.805Z,226.77
2018-02-08T19:46:15.897Z,247.60
2018-02-08T19:48:45.727Z,222.37
2018-02-08T19:51:13.961Z,218.20
2018-02-08T19:53:42.893Z,283.90
2018-02-08T19:56:11.509Z,228.40
2018-02-08T19:58:39.756Z,256.57
2018-02-08T20:01:08.797Z,246.10
2018-02-08T20:03:37.049Z,288.20
2018-02-08T20:06:05.328Z,298.43
2018-02-08T20:08:33.614Z,270.40
2018-02-08T20:11:02.040Z,270.27
2018-02-08T20:13:30.278Z,266.87
2018-02-08T20:16:00.789Z,175.57
2018-02-08T20:18:29.067Z,197.73
2018-02-08T20:20:57.401Z,237.27
2018-02-08T20:23:25.783Z,295.67
2018-02-08T20:25:54.100Z,277.97
2018-02-08T20:28:22.413Z,313.40
2018-02-08T20:30:56.359Z,279.47
2018-02-08T20:33:24.616Z,257.47
2018-02-08T20:35:52.876Z,284.43
2018-02-08T20:38:21.925Z,718.53
2018-02-08T20:40:50.190Z,768.67
2018-02-08T20:43:33.119Z,237.70
2018-02-08T20:46:01.412Z,584.43
2018-02-08T20:48:29.736Z,217.27
2018-02-08T20:50:57.973Z,214.57
2018-02-08T20:53:26.203Z,228.53
2018-02-08T20:55:54.485Z,230.90
2018-02-08T20:58:22.775Z,231.47
2018-02-08T21:00:51.020Z,237.67
2018-02-08T21:03:19.334Z,221.57
2018-02-08T21:05:47.596Z,191.33
2018-02-08T21:08:15.877Z,210.67
2018-02-08T21:10:44.132Z,436.17
2018-02-08T21:13:12.612Z,434.83
2018-02-08T21:15:40.859Z,235.67
2018-02-08T21:18:09.953Z,202.77
2018-02-08T21:20:38.938Z,393.40
2018-02-08T21:23:07.980Z,328.27
2018-02-08T21:25:36.269Z,283.97
2018-02-08T21:28:04.535Z,235.13
2018-02-08T21:30:32.765Z,421.90
2018-02-08T21:33:01.817Z,225.13
2018-02-08T21:35:30.045Z,194.87
2018-02-08T21:37:58.269Z,178.47
2018-02-08T21:40:26.541Z,171.40
2018-02-08T21:42:54.795Z,168.33
2018-02-08T21:45:23.028Z,197.97
2018-02-08T21:47:52.084Z,187.87
2018-02-08T21:50:20.321Z,302.23
2018-02-08T21:52:48.545Z,403.63
2018-02-08T21:55:16.788Z,200.10
2018-02-08T21:57:45.046Z,178.63
2018-02-08T22:00:13.270Z,175.47
2018-02-08T22:02:41.529Z,191.40
2018-02-08T22:05:09.759Z,184.07
2018-02-08T22:07:38.120Z,212.07
2018-02-08T22:10:06.371Z,249.37
2018-02-08T22:12:34.603Z,277.20
2018-02-08T22:15:02.832Z,236.53
2018-02-08T22:17:31.128Z,270.37
2018-02-08T22:20:00.124Z,251.67
2018-02-08T22:22:29.117Z,282.47
2018-02-08T22:24:57.415Z,212.93
2018-02-08T22:27:25.653Z,196.93
2018-02-08T22:29:54.653Z,191.80
2018-02-08T22:32:23.696Z,189.03
2018-02-08T22:34:51.946Z,191.40
2018-02-08T22:37:20.165Z,180.57
2018-02-08T22:39:48.513Z,195.67
2018-02-08T22:42:16.745Z,194.37
2018-02-08T22:44:45.751Z,255.73
2018-02-08T22:47:14.786Z,222.87
2018-02-08T22:49:43.009Z,226.10
2018-02-08T22:52:12.013Z,205.80
2018-02-08T22:54:41.063Z,240.60
2018-02-08T22:57:09.299Z,177.40
2018-02-08T22:59:37.532Z,188.77
2018-02-08T23:02:05.798Z,187.13
2018-02-08T23:04:34.040Z,219.57
2018-02-08T23:07:02.287Z,233.60
2018-02-08T23:09:30.578Z,274.73
2018-02-08T23:11:58.832Z,304.47
2018-02-08T23:14:27.843Z,286.53
2018-02-08T23:16:56.202Z,254.10
2018-02-08T23:19:25.214Z,249.20
2018-02-08T23:21:53.441Z,184.20
2018-02-08T23:24:21.716Z,189.67
2018-02-08T23:26:49.954Z,179.80
2018-02-08T23:29:18.197Z,204.07
2018-02-08T23:31:47.335Z,192.97
2018-02-08T23:34:15.560Z,175.30
2018-02-08T23:36:44.562Z,202.53
2018-02-08T23:39:13.626Z,180.17
2018-02-08T23:41:41.857Z,240.97
2018-02-08T23:44:10.120Z,187.53
2018-02-08T23:46:38.401Z,188.07
2018-02-08T23:49:06.613Z,178.30
2018-02-08T23:51:34.845Z,193.03
2018-02-08T23:54:03.128Z,165.43
2018-02-08T23:56:31.372Z,184.80
2018-02-08T23:59:00.370Z,179.57
